Time;durP1;ratioP1;P1;durP2;ratioP2;P2;SDS_P1;SDS_P2;PMS_P1;PMS_P2;Temp;Humidity;BMP_temperature;BMP_pressure;BME280_temperature;BME280_humidity;BME280_pressure;Samples;Min_cycle;Max_cycle;Signal;HPM_P1;HPM_P2
2021/06/18 00:02:22;;;;;;;3.10;2.50;;;29.30;49.10;;;;;;5046649;28;20036;-90
2021/06/18 00:04:48;;;;;;;3.83;2.60;;;29.30;49.10;;;;;;5096964;28;20049;-90
2021/06/18 00:07:13;;;;;;;3.78;2.55;;;29.30;49.20;;;;;;5045859;28;20480;-93
2021/06/18 00:09:39;;;;;;;3.30;2.58;;;29.20;49.20;;;;;;5059079;28;20027;-91
2021/06/18 00:12:06;;;;;;;3.40;2.75;;;29.20;49.20;;;;;;5053749;28;20469;-89
2021/06/18 00:14:32;;;;;;;4.20;2.90;;;29.20;49.30;;;;;;5061464;28;20085;-90
2021/06/18 00:16:57;;;;;;;3.25;2.60;;;29.20;49.40;;;;;;5058218;28;20025;-92
2021/06/18 00:19:23;;;;;;;3.53;2.83;;;29.10;49.40;;;;;;5078262;28;20036;-89
2021/06/18 00:21:49;;;;;;;3.92;3.03;;;29.10;49.40;;;;;;5061087;28;20036;-92
2021/06/18 00:24:15;;;;;;;4.40;3.25;;;29.10;49.50;;;;;;5069892;28;20104;-91
2021/06/18 00:26:41;;;;;;;4.05;2.92;;;29.00;49.50;;;;;;5041262;28;20043;-92
2021/06/18 00:29:07;;;;;;;5.47;3.35;;;29.00;49.50;;;;;;5065163;28;20020;-92
2021/06/18 00:31:33;;;;;;;4.45;3.40;;;28.90;49.50;;;;;;5061286;28;20104;-91
2021/06/18 00:33:59;;;;;;;5.75;3.53;;;28.90;49.60;;;;;;5074701;28;20028;-92
2021/06/18 00:36:25;;;;;;;3.83;3.05;;;28.90;49.60;;;;;;5045089;28;20415;-88
2021/06/18 00:38:51;;;;;;;4.47;3.10;;;28.80;49.60;;;;;;5043854;28;20040;-91
2021/06/18 00:41:16;;;;;;;4.53;3.55;;;28.80;49.70;;;;;;5061547;28;20464;-92
2021/06/18 00:43:43;;;;;;;3.47;3.10;;;28.80;49.70;;;;;;5076959;28;20024;-90
2021/06/18 00:46:09;;;;;;;3.22;2.75;;;28.70;49.70;;;;;;5061595;28;20016;-91
2021/06/18 00:48:36;;;;;;;4.88;3.25;;;28.70;49.70;;;;;;5060844;28;20055;-92
2021/06/18 00:51:02;;;;;;;5.18;3.40;;;28.70;49.80;;;;;;5060250;28;20035;-91
2021/06/18 00:53:28;;;;;;;4.20;3.13;;;28.60;49.80;;;;;;5051764;28;20032;-91
2021/06/18 00:55:54;;;;;;;4.22;3.20;;;28.60;49.80;;;;;;5060370;28;20089;-90
2021/06/18 00:58:20;;;;;;;5.70;3.67;;;28.60;49.80;;;;;;5060802;28;20020;-90
2021/06/18 01:00:46;;;;;;;4.15;3.45;;;28.50;49.80;;;;;;5042650;28;20020;-90
2021/06/18 01:03:12;;;;;;;4.40;3.40;;;28.50;49.90;;;;;;5052230;28;20024;-90
2021/06/18 01:05:42;;;;;;;4.70;3.60;;;28.50;50.00;;;;;;5043268;28;20028;-90
2021/06/18 01:08:20;;;;;;;4.30;3.58;;;28.50;50.00;;;;;;5077157;28;20154;-90
2021/06/18 01:11:28;;;;;;;4.80;3.55;;;28.40;50.10;;;;;;5055794;28;20032;-90
2021/06/18 01:14:11;;;;;;;4.28;3.38;;;28.40;50.20;;;;;;5086775;28;20102;-89
2021/06/18 01:16:43;;;;;;;5.18;3.67;;;28.30;50.10;;;;;;5059861;28;20032;-89
2021/06/18 01:19:25;;;;;;;4.55;3.17;;;28.30;50.10;;;;;;5069145;28;20529;-89
2021/06/18 01:21:58;;;;;;;4.65;3.40;;;28.30;50.20;;;;;;5093936;28;20472;-89
2021/06/18 01:24:39;;;;;;;4.97;3.72;;;28.20;50.10;;;;;;5095365;28;20115;-89
2021/06/18 01:27:30;;;;;;;5.10;3.72;;;28.20;50.30;;;;;;5059730;28;20024;-90
2021/06/18 01:30:05;;;;;;;4.75;3.42;;;28.20;50.30;;;;;;5060049;28;20020;-89
2021/06/18 01:32:42;;;;;;;5.03;3.70;;;28.10;50.20;;;;;;5057173;28;20059;-87
2021/06/18 01:35:18;;;;;;;5.35;3.60;;;28.10;50.40;;;;;;5077095;28;20024;-88
2021/06/18 01:37:54;;;;;;;5.28;3.78;;;28.10;50.40;;;;;;5064291;28;20028;-90
2021/06/18 01:40:22;;;;;;;5.43;4.10;;;28.00;50.40;;;;;;5076399;28;20081;-91
2021/06/18 01:42:50;;;;;;;4.55;3.78;;;28.00;50.40;;;;;;5052429;28;20469;-90
2021/06/18 01:45:18;;;;;;;5.30;4.28;;;28.00;50.40;;;;;;5058175;28;20092;-91
2021/06/18 01:47:46;;;;;;;5.25;4.13;;;27.90;50.40;;;;;;5072415;28;20106;-91
2021/06/18 01:50:18;;;;;;;5.70;4.35;;;27.90;50.50;;;;;;5056623;28;20389;-89
2021/06/18 01:52:50;;;;;;;4.85;3.88;;;27.90;50.50;;;;;;5075276;28;20043;-92
2021/06/18 01:55:20;;;;;;;5.80;4.10;;;27.80;50.50;;;;;;5060227;28;20051;-92
2021/06/18 01:57:47;;;;;;;4.50;3.78;;;27.80;50.50;;;;;;5059728;28;20070;-90
2021/06/18 02:00:14;;;;;;;4.80;3.92;;;27.80;50.60;;;;;;5069313;28;20027;-91
2021/06/18 02:02:42;;;;;;;5.00;4.18;;;27.80;50.60;;;;;;5057971;28;20039;-90
2021/06/18 02:05:09;;;;;;;5.93;4.30;;;27.80;50.60;;;;;;5057968;28;20115;-91
2021/06/18 02:07:38;;;;;;;5.03;4.00;;;27.70;50.60;;;;;;5045466;28;20032;-91
2021/06/18 02:10:08;;;;;;;5.28;4.15;;;27.70;50.70;;;;;;5076716;28;20032;-92
2021/06/18 02:12:34;;;;;;;5.03;3.88;;;27.60;50.70;;;;;;5062620;28;20044;-87
2021/06/18 02:15:01;;;;;;;5.35;4.32;;;27.60;50.70;;;;;;5048908;28;20028;-90
2021/06/18 02:17:30;;;;;;;5.90;4.35;;;27.60;50.80;;;;;;5062315;28;20036;-90
2021/06/18 02:19:56;;;;;;;4.85;4.13;;;27.60;50.80;;;;;;5063986;28;20028;-90
2021/06/18 02:22:23;;;;;;;5.40;4.38;;;27.50;50.80;;;;;;5039711;28;20036;-91
2021/06/18 02:24:51;;;;;;;5.30;4.15;;;27.50;50.90;;;;;;5057134;28;20028;-92
2021/06/18 02:27:19;;;;;;;6.05;4.47;;;27.50;50.90;;;;;;5059495;28;20028;-90
2021/06/18 02:29:45;;;;;;;5.70;4.22;;;27.40;50.90;;;;;;5075427;28;20036;-88
2021/06/18 02:32:12;;;;;;;5.43;4.32;;;27.40;50.90;;;;;;5075714;28;20032;-91
2021/06/18 02:34:39;;;;;;;5.57;4.43;;;27.40;50.90;;;;;;5041709;28;20021;-92
2021/06/18 02:37:06;;;;;;;5.93;4.72;;;27.40;51.00;;;;;;5064543;28;20036;-92
2021/06/18 02:39:32;;;;;;;5.63;4.22;;;27.30;51.00;;;;;;5056587;28;20017;-92
2021/06/18 02:41:59;;;;;;;5.35;4.45;;;27.30;51.10;;;;;;5059176;28;20020;-92
2021/06/18 02:44:25;;;;;;;5.80;4.13;;;27.30;51.00;;;;;;5059554;28;20064;-90
2021/06/18 02:47:12;;;;;;;5.75;4.32;;;27.30;51.10;;;;;;5076018;28;20020;-92
2021/06/18 02:50:03;;;;;;;5.53;4.28;;;27.30;51.20;;;;;;5075839;28;20086;-91
2021/06/18 02:52:49;;;;;;;5.60;4.20;;;27.20;51.30;;;;;;5075959;28;20024;-92
2021/06/18 02:55:25;;;;;;;4.90;4.05;;;27.20;51.20;;;;;;5048797;28;20044;-91
2021/06/18 02:57:57;;;;;;;5.45;4.32;;;27.10;51.80;;;;;;5074950;28;20039;-92
2021/06/18 03:00:25;;;;;;;5.78;4.15;;;27.10;51.20;;;;;;5053038;28;20035;-91
2021/06/18 03:02:59;;;;;;;5.35;4.10;;;27.10;51.20;;;;;;5093239;28;20040;-92
2021/06/18 03:05:27;;;;;;;5.90;4.88;;;27.10;51.30;;;;;;5043095;28;20028;-93
2021/06/18 03:08:00;;;;;;;5.63;4.50;;;27.10;51.30;;;;;;5059062;28;20027;-93
2021/06/18 03:10:28;;;;;;;6.07;4.17;;;27.00;51.40;;;;;;5087691;28;20107;-94
2021/06/18 03:13:07;;;;;;;5.22;4.20;;;27.00;51.30;;;;;;5075550;28;20032;-92
2021/06/18 03:15:37;;;;;;;4.72;4.07;;;27.00;51.40;;;;;;5059251;28;20032;-93
2021/06/18 03:18:04;;;;;;;4.80;4.13;;;27.00;51.40;;;;;;5075568;28;20052;-93
2021/06/18 03:20:34;;;;;;;5.40;4.57;;;26.90;51.40;;;;;;5075511;28;20016;-93
2021/06/18 03:23:03;;;;;;;5.25;4.32;;;26.90;51.50;;;;;;5058181;28;20431;-93
2021/06/18 03:25:34;;;;;;;5.07;4.00;;;26.90;51.60;;;;;;5093465;28;20016;-91
2021/06/18 03:28:00;;;;;;;5.82;4.47;;;26.90;51.60;;;;;;5058758;28;20143;-92
2021/06/18 03:30:26;;;;;;;5.65;4.50;;;26.80;51.60;;;;;;5062052;28;20024;-93
2021/06/18 03:32:53;;;;;;;5.85;4.32;;;26.80;51.60;;;;;;5078758;28;20036;-93
2021/06/18 03:35:21;;;;;;;5.60;4.57;;;26.80;51.70;;;;;;5068958;28;20039;-93
2021/06/18 03:37:48;;;;;;;5.45;4.43;;;26.80;51.70;;;;;;5055158;28;20464;-93
2021/06/18 03:40:14;;;;;;;5.43;4.60;;;26.80;51.70;;;;;;5052783;28;20025;-93
2021/06/18 03:42:40;;;;;;;5.88;4.35;;;26.70;51.70;;;;;;5077609;28;20078;-91
2021/06/18 03:45:08;;;;;;;5.93;4.55;;;26.70;51.70;;;;;;5058725;28;20033;-92
2021/06/18 03:47:36;;;;;;;6.32;4.80;;;26.70;51.70;;;;;;5062575;28;20089;-93
2021/06/18 03:50:04;;;;;;;6.60;4.85;;;26.60;51.70;;;;;;5062410;28;20461;-92
2021/06/18 03:52:30;;;;;;;5.20;4.18;;;26.70;51.80;;;;;;5094412;28;20024;-92
2021/06/18 03:54:57;;;;;;;6.60;4.68;;;26.70;51.70;;;;;;5045004;28;20077;-92
2021/06/18 03:57:24;;;;;;;6.13;4.80;;;26.60;51.70;;;;;;5055575;28;20102;-90
2021/06/18 03:59:52;;;;;;;5.70;4.72;;;26.60;51.70;;;;;;5041187;28;20077;-91
2021/06/18 04:02:20;;;;;;;5.22;4.47;;;26.60;51.80;;;;;;5034083;28;20033;-91
2021/06/18 04:04:47;;;;;;;6.18;4.95;;;26.60;51.80;;;;;;5071969;28;20037;-91
2021/06/18 04:07:14;;;;;;;5.65;4.32;;;26.60;51.90;;;;;;5055682;28;20421;-91
2021/06/18 04:09:40;;;;;;;5.82;4.70;;;26.50;51.80;;;;;;5057978;28;20033;-90
2021/06/18 04:12:08;;;;;;;6.07;4.38;;;26.50;51.90;;;;;;5041681;28;20393;-89
2021/06/18 04:14:35;;;;;;;6.03;4.90;;;26.50;51.90;;;;;;5076081;28;20032;-88
2021/06/18 04:17:04;;;;;;;6.63;4.40;;;26.50;51.90;;;;;;5074243;28;20028;-85
2021/06/18 04:19:31;;;;;;;5.53;4.50;;;26.50;52.00;;;;;;5058093;28;20127;-89
2021/06/18 04:22:01;;;;;;;6.40;5.40;;;26.40;52.00;;;;;;5041105;28;20025;-87
2021/06/18 04:24:28;;;;;;;6.13;5.00;;;26.40;52.00;;;;;;5076670;28;20033;-86
2021/06/18 04:26:54;;;;;;;7.30;5.25;;;26.50;52.20;;;;;;5070151;28;20039;-86
2021/06/18 04:29:20;;;;;;;6.05;5.13;;;26.50;52.30;;;;;;5073451;28;20025;-87
2021/06/18 04:31:45;;;;;;;6.85;5.30;;;26.50;52.30;;;;;;5072706;28;20504;-83
2021/06/18 04:34:11;;;;;;;5.45;4.45;;;26.40;52.40;;;;;;5035702;28;20112;-85
2021/06/18 04:36:38;;;;;;;5.60;4.57;;;26.40;53.00;;;;;;5057354;28;20113;-85
2021/06/18 04:39:06;;;;;;;6.30;5.20;;;26.40;52.40;;;;;;5070281;28;20036;-86
2021/06/18 04:41:32;;;;;;;5.55;4.50;;;26.40;52.40;;;;;;5064048;28;20516;-88
2021/06/18 04:43:57;;;;;;;5.40;4.53;;;26.40;52.40;;;;;;5067846;28;20039;-91
2021/06/18 04:46:24;;;;;;;5.93;4.43;;;26.40;52.40;;;;;;5063697;28;20104;-91
2021/06/18 04:48:50;;;;;;;5.18;4.28;;;26.40;52.50;;;;;;5049396;28;20377;-88
2021/06/18 04:51:17;;;;;;;5.32;4.55;;;26.40;52.50;;;;;;5041311;28;20048;-90
2021/06/18 04:53:44;;;;;;;5.60;4.57;;;26.30;52.50;;;;;;5041440;28;20048;-88
2021/06/18 04:56:10;;;;;;;5.82;4.60;;;26.30;52.40;;;;;;5073456;28;20040;-88
2021/06/18 04:58:37;;;;;;;6.10;4.53;;;26.30;52.50;;;;;;5053191;28;20044;-83
2021/06/18 05:01:02;;;;;;;5.30;4.40;;;26.30;52.60;;;;;;5051742;28;20078;-86
2021/06/18 05:03:28;;;;;;;5.78;4.40;;;26.30;52.80;;;;;;5070170;28;20028;-86
2021/06/18 05:05:54;;;;;;;5.80;4.70;;;26.20;52.80;;;;;;5073574;28;20066;-84
2021/06/18 05:08:20;;;;;;;5.25;4.28;;;26.20;53.10;;;;;;5067382;28;20417;-84
2021/06/18 05:10:46;;;;;;;4.88;4.22;;;26.20;53.70;;;;;;5055288;28;20024;-85
2021/06/18 05:13:11;;;;;;;5.43;4.43;;;26.20;53.10;;;;;;5056091;28;20024;-84
2021/06/18 05:15:37;;;;;;;5.28;4.30;;;26.20;53.10;;;;;;5052816;28;20078;-82
2021/06/18 05:18:03;;;;;;;5.85;4.20;;;26.20;53.20;;;;;;5066337;28;20031;-82
2021/06/18 05:20:29;;;;;;;6.30;4.45;;;26.20;53.20;;;;;;5025448;28;20021;-91
2021/06/18 05:22:55;;;;;;;5.38;4.07;;;26.10;53.30;;;;;;5056375;28;20513;-88
2021/06/18 05:25:20;;;;;;;5.38;4.22;;;26.10;53.30;;;;;;5072468;28;20029;-84
2021/06/18 05:27:46;;;;;;;5.63;4.32;;;26.10;53.40;;;;;;5072443;28;20031;-84
2021/06/18 05:30:14;;;;;;;5.40;4.45;;;26.10;53.60;;;;;;5072673;28;20120;-81
2021/06/18 05:32:40;;;;;;;5.47;4.10;;;26.10;53.60;;;;;;5054043;28;20029;-85
2021/06/18 05:35:06;;;;;;;5.55;4.38;;;26.10;53.70;;;;;;5051168;28;20166;-82
2021/06/18 05:37:32;;;;;;;5.22;4.05;;;26.00;53.70;;;;;;5065356;28;20037;-83
2021/06/18 05:39:58;;;;;;;4.97;3.85;;;26.00;53.80;;;;;;5055838;28;20033;-83
2021/06/18 05:42:24;;;;;;;5.10;4.30;;;26.00;53.80;;;;;;5072803;28;20033;-85
2021/06/18 05:44:50;;;;;;;4.43;3.83;;;26.00;53.80;;;;;;5038300;28;20027;-85
2021/06/18 05:47:15;;;;;;;4.90;3.88;;;26.00;53.90;;;;;;5053814;28;20029;-85
2021/06/18 05:49:41;;;;;;;4.55;3.38;;;26.00;54.00;;;;;;5035239;28;20058;-85
2021/06/18 05:52:07;;;;;;;5.22;3.63;;;25.90;53.90;;;;;;5055181;28;20032;-84
2021/06/18 05:54:33;;;;;;;4.85;3.60;;;25.90;54.00;;;;;;5072928;28;20024;-86
2021/06/18 05:56:59;;;;;;;4.85;3.63;;;25.90;54.10;;;;;;5035312;28;20183;-85
2021/06/18 05:59:24;;;;;;;4.93;3.90;;;25.90;54.20;;;;;;5032802;28;20032;-84
2021/06/18 06:01:50;;;;;;;4.45;3.65;;;25.90;54.30;;;;;;5072569;28;20031;-84
2021/06/18 06:04:16;;;;;;;5.55;4.00;;;25.90;54.30;;;;;;5072951;28;20027;-82
2021/06/18 06:06:42;;;;;;;4.90;3.90;;;25.80;54.40;;;;;;5072123;28;20434;-83
2021/06/18 06:09:07;;;;;;;5.05;3.88;;;25.80;54.50;;;;;;5071932;28;20393;-82
2021/06/18 06:11:34;;;;;;;4.70;3.78;;;25.80;54.50;;;;;;5069583;28;20397;-82
2021/06/18 06:14:02;;;;;;;5.53;4.13;;;25.80;54.60;;;;;;5041718;28;20033;-82
2021/06/18 06:16:32;;;;;;;4.85;4.15;;;25.80;54.70;;;;;;5055008;28;20036;-82
2021/06/18 06:18:58;;;;;;;5.25;4.05;;;25.80;54.90;;;;;;5054736;28;20112;-83
2021/06/18 06:21:25;;;;;;;5.55;4.22;;;25.80;55.00;;;;;;5051696;28;20029;-82
2021/06/18 06:23:51;;;;;;;5.82;4.60;;;25.80;55.00;;;;;;5052152;28;20042;-84
2021/06/18 06:26:20;;;;;;;4.95;4.20;;;25.80;55.10;;;;;;5038417;28;20036;-83
2021/06/18 06:28:46;;;;;;;5.05;4.55;;;25.80;55.30;;;;;;5072614;28;20028;-83
2021/06/18 06:31:12;;;;;;;6.15;4.90;;;25.70;55.30;;;;;;5050584;28;20036;-91
2021/06/18 06:33:38;;;;;;;5.45;4.63;;;25.70;55.50;;;;;;5065435;28;20024;-81
2021/06/18 06:36:04;;;;;;;6.07;5.15;;;25.70;55.60;;;;;;5048511;28;20033;-79
2021/06/18 06:38:30;;;;;;;5.30;4.70;;;25.70;55.80;;;;;;5063303;28;20056;-80
2021/06/18 06:40:56;;;;;;;6.13;5.10;;;25.70;55.80;;;;;;5071277;28;20059;-84
2021/06/18 06:43:22;;;;;;;6.05;5.38;;;25.70;56.20;;;;;;5071537;28;20056;-81
2021/06/18 06:45:49;;;;;;;5.90;5.30;;;25.70;56.80;;;;;;5070814;28;20390;-80
2021/06/18 06:48:15;;;;;;;6.80;6.10;;;25.70;57.20;;;;;;5040318;28;20047;-83
2021/06/18 06:50:41;;;;;;;5.95;5.35;;;25.70;57.50;;;;;;5067501;28;20025;-82
2021/06/18 06:53:07;;;;;;;6.28;5.53;;;25.70;57.60;;;;;;5051192;28;20496;-85
2021/06/18 06:55:34;;;;;;;5.93;5.32;;;25.70;57.70;;;;;;5053353;28;20040;-82
2021/06/18 06:58:00;;;;;;;5.75;5.15;;;25.70;57.80;;;;;;5056476;28;20429;-82
2021/06/18 07:00:26;;;;;;;5.53;4.78;;;25.80;57.90;;;;;;5041489;28;20169;-82
2021/06/18 07:02:53;;;;;;;5.75;5.18;;;25.80;57.90;;;;;;5069591;28;20032;-82
2021/06/18 07:05:19;;;;;;;6.72;5.25;;;25.80;57.80;;;;;;5096474;28;20052;-82
2021/06/18 07:07:45;;;;;;;5.78;5.18;;;25.80;57.80;;;;;;5062089;28;20040;-81
2021/06/18 07:10:11;;;;;;;5.82;5.22;;;25.80;57.70;;;;;;5028976;28;20038;-82
2021/06/18 07:12:37;;;;;;;5.82;4.93;;;25.80;57.70;;;;;;5096675;28;20028;-83
2021/06/18 07:15:04;;;;;;;5.63;4.85;;;25.80;57.70;;;;;;5078143;28;20108;-83
2021/06/18 07:17:30;;;;;;;5.60;5.00;;;25.80;57.70;;;;;;5042310;28;20116;-83
2021/06/18 07:19:57;;;;;;;5.68;5.07;;;25.80;57.60;;;;;;5044793;28;20127;-84
2021/06/18 07:22:23;;;;;;;6.07;5.00;;;25.80;57.60;;;;;;5061652;28;20032;-83
2021/06/18 07:24:50;;;;;;;6.10;4.85;;;25.90;57.70;;;;;;5068230;28;20029;-83
2021/06/18 07:27:16;;;;;;;5.28;4.78;;;25.80;57.60;;;;;;5075272;28;20056;-83
2021/06/18 07:29:43;;;;;;;5.80;5.03;;;25.90;57.60;;;;;;5095667;28;20028;-83
2021/06/18 07:32:10;;;;;;;5.95;5.28;;;25.90;57.70;;;;;;5060856;28;20085;-83
2021/06/18 07:34:37;;;;;;;5.32;4.72;;;25.90;57.70;;;;;;5057668;28;20368;-84
2021/06/18 07:37:03;;;;;;;5.28;4.75;;;25.90;57.70;;;;;;5058060;28;20082;-88
2021/06/18 07:39:29;;;;;;;5.50;4.93;;;26.00;57.80;;;;;;5057986;28;20021;-83
2021/06/18 07:41:55;;;;;;;5.45;4.72;;;26.00;57.70;;;;;;5088360;28;20109;-85
2021/06/18 07:44:20;;;;;;;5.25;4.57;;;26.00;57.70;;;;;;5052005;28;20055;-85
2021/06/18 07:46:46;;;;;;;5.43;4.65;;;26.00;57.70;;;;;;5078425;28;20402;-85
2021/06/18 07:49:12;;;;;;;5.88;4.60;;;26.10;57.80;;;;;;5045134;28;20043;-84
2021/06/18 07:51:38;;;;;;;5.43;4.38;;;26.10;57.70;;;;;;5041685;28;20044;-84
2021/06/18 07:54:04;;;;;;;5.88;5.22;;;26.10;57.70;;;;;;5072533;28;20035;-85
2021/06/18 07:56:33;;;;;;;4.90;3.95;;;26.10;57.60;;;;;;5044825;28;20052;-85
2021/06/18 07:58:59;;;;;;;5.30;4.65;;;26.20;57.70;;;;;;5058821;28;20041;-85
2021/06/18 08:01:25;;;;;;;4.95;4.32;;;26.20;57.60;;;;;;5062396;28;20028;-85
2021/06/18 08:03:51;;;;;;;6.55;4.97;;;26.20;57.50;;;;;;5061213;28;20057;-85
2021/06/18 08:06:17;;;;;;;5.30;4.53;;;26.20;57.50;;;;;;5043191;28;21317;-85
2021/06/18 08:08:47;;;;;;;5.50;4.43;;;26.20;57.50;;;;;;5053397;28;20127;-84
2021/06/18 08:11:13;;;;;;;6.03;5.18;;;26.20;57.40;;;;;;5044336;28;20043;-83
2021/06/18 08:13:39;;;;;;;5.75;5.13;;;26.20;57.40;;;;;;5060568;28;20021;-82
2021/06/18 08:16:05;;;;;;;5.90;5.05;;;26.20;57.40;;;;;;5095241;28;20032;-85
2021/06/18 08:18:34;;;;;;;5.63;5.00;;;26.30;57.50;;;;;;5060624;28;20115;-83
2021/06/18 08:21:01;;;;;;;5.40;4.85;;;26.20;57.30;;;;;;5058892;28;20024;-83
2021/06/18 08:23:27;;;;;;;5.43;4.57;;;26.20;57.30;;;;;;5070697;28;20374;-81
2021/06/18 08:25:52;;;;;;;6.43;5.53;;;26.20;57.20;;;;;;5039252;28;20032;-82
2021/06/18 08:28:18;;;;;;;5.85;4.85;;;26.30;57.20;;;;;;5051720;28;20088;-82
2021/06/18 08:30:44;;;;;;;6.45;5.65;;;26.20;57.10;;;;;;5039651;28;20507;-83
2021/06/18 08:33:10;;;;;;;6.45;5.57;;;26.30;57.10;;;;;;5083884;28;20114;-82
2021/06/18 08:35:35;;;;;;;5.90;5.13;;;26.30;57.10;;;;;;5093386;28;20028;-82
2021/06/18 08:38:02;;;;;;;6.05;5.05;;;26.30;57.10;;;;;;5075748;28;20031;-82
2021/06/18 08:40:33;;;;;;;6.72;5.45;;;26.30;57.00;;;;;;5059091;28;20089;-80
2021/06/18 08:43:00;;;;;;;6.00;5.40;;;26.30;57.00;;;;;;5075818;28;20039;-84
2021/06/18 08:45:26;;;;;;;6.15;5.32;;;26.20;56.90;;;;;;5059071;28;20054;-83
2021/06/18 08:47:52;;;;;;;6.10;5.28;;;26.30;56.90;;;;;;5042783;28;20024;-83
2021/06/18 08:50:23;;;;;;;6.28;5.68;;;26.20;56.90;;;;;;5093259;28;20533;-82
2021/06/18 08:52:52;;;;;;;6.35;5.75;;;26.30;56.90;;;;;;5074785;28;20031;-83
2021/06/18 08:55:20;;;;;;;6.20;5.35;;;26.30;56.90;;;;;;5071587;28;20045;-84
2021/06/18 08:57:51;;;;;;;6.22;5.57;;;26.30;56.90;;;;;;5059086;28;20052;-85
2021/06/18 09:00:22;;;;;;;7.32;6.45;;;26.30;57.00;;;;;;5057125;28;20033;-87
2021/06/18 09:02:48;;;;;;;6.32;5.55;;;26.30;57.00;;;;;;5058270;28;20042;-84
2021/06/18 09:05:15;;;;;;;6.53;5.82;;;26.20;56.90;;;;;;5059958;28;20476;-87
2021/06/18 09:07:59;;;;;;;6.57;5.88;;;26.30;57.00;;;;;;5062477;28;20162;-88
2021/06/18 09:10:40;;;;;;;6.63;5.95;;;26.30;57.10;;;;;;5065059;28;20118;-86
2021/06/18 09:13:09;;;;;;;5.97;5.38;;;26.30;57.00;;;;;;5069474;28;20028;-87
2021/06/18 09:15:36;;;;;;;5.85;5.22;;;26.30;57.00;;;;;;5076768;28;20032;-90
2021/06/18 09:18:27;;;;;;;6.75;6.05;;;26.30;57.00;;;;;;5044157;28;20032;-90
2021/06/18 09:21:14;;;;;;;6.70;6.00;;;26.30;57.20;;;;;;5047194;28;20055;-88
2021/06/18 09:23:47;;;;;;;6.65;5.47;;;26.30;57.10;;;;;;5040567;28;20044;-84
2021/06/18 09:26:33;;;;;;;6.15;5.55;;;26.40;57.10;;;;;;5044048;28;20484;-84
2021/06/18 09:29:08;;;;;;;5.97;5.38;;;26.40;57.20;;;;;;5072454;28;20111;-87
2021/06/18 09:31:59;;;;;;;6.53;5.78;;;26.50;57.10;;;;;;5065924;28;20036;-88
2021/06/18 09:37:12;;;;;;;5.90;5.20;;;26.50;57.10;;;;;;5075161;28;20028;-87
2021/06/18 09:40:07;;;;;;;6.38;5.78;;;26.60;57.00;;;;;;5047396;28;20478;-88
2021/06/18 09:42:35;;;;;;;6.57;5.88;;;26.60;57.10;;;;;;5075119;28;20028;-88
2021/06/18 09:45:15;;;;;;;6.05;5.45;;;26.70;56.90;;;;;;5056305;28;20024;-86
2021/06/18 09:47:41;;;;;;;6.55;5.88;;;26.80;57.00;;;;;;5077695;28;20016;-85
2021/06/18 09:50:13;;;;;;;7.03;6.32;;;26.80;56.90;;;;;;5059781;28;20016;-85
2021/06/18 09:52:40;;;;;;;6.65;5.88;;;26.90;57.00;;;;;;5075994;28;20071;-87
2021/06/18 09:55:06;;;;;;;6.57;5.55;;;27.00;56.90;;;;;;5076247;28;20027;-86
2021/06/18 09:57:40;;;;;;;6.40;5.40;;;27.10;56.90;;;;;;5093792;28;20048;-85
2021/06/18 10:00:12;;;;;;;6.90;6.20;;;27.20;56.90;;;;;;5059799;28;20032;-87
2021/06/18 10:02:46;;;;;;;6.88;6.18;;;27.30;56.80;;;;;;5093483;28;20107;-86
2021/06/18 10:05:20;;;;;;;6.80;6.00;;;27.30;56.80;;;;;;5047626;28;20059;-88
2021/06/18 10:07:49;;;;;;;6.68;5.85;;;27.30;56.70;;;;;;5058663;28;20024;-90
2021/06/18 10:10:18;;;;;;;6.53;5.53;;;27.40;56.60;;;;;;5047766;28;20016;-87
2021/06/18 10:12:44;;;;;;;6.05;5.45;;;27.50;56.60;;;;;;5056677;28;20028;-84
2021/06/18 10:15:14;;;;;;;6.18;5.57;;;27.60;56.60;;;;;;5075272;28;20035;-81
2021/06/18 10:17:42;;;;;;;6.40;5.72;;;27.70;56.60;;;;;;5075108;28;20020;-81
2021/06/18 10:20:16;;;;;;;5.85;5.15;;;27.80;56.50;;;;;;5058891;28;20051;-83
2021/06/18 10:23:06;;;;;;;6.38;5.78;;;27.80;56.50;;;;;;5074867;28;20480;-81
2021/06/18 10:25:39;;;;;;;7.35;5.00;;;27.90;56.40;;;;;;5057407;28;20476;-82
2021/06/18 10:28:11;;;;;;;6.03;5.40;;;28.00;56.30;;;;;;5074024;28;20377;-81
2021/06/18 10:30:48;;;;;;;5.93;5.30;;;28.10;56.20;;;;;;5057511;28;20464;-82
2021/06/18 10:33:29;;;;;;;6.75;5.32;;;28.10;56.20;;;;;;5074465;28;20032;-82
2021/06/18 10:36:10;;;;;;;5.85;5.25;;;28.20;56.20;;;;;;5057448;28;20526;-81
2021/06/18 10:38:47;;;;;;;5.60;5.00;;;28.30;56.10;;;;;;5074123;28;20262;-83
2021/06/18 10:41:13;;;;;;;6.32;5.18;;;28.40;56.00;;;;;;5058031;28;20035;-83
2021/06/18 10:43:50;;;;;;;6.00;5.30;;;28.40;55.80;;;;;;5056967;28;20020;-83
2021/06/18 10:46:16;;;;;;;5.40;4.68;;;28.50;55.90;;;;;;5058023;28;20123;-83
2021/06/18 10:48:51;;;;;;;5.70;5.03;;;28.60;55.80;;;;;;5074583;28;20107;-82
2021/06/18 10:51:26;;;;;;;5.28;4.65;;;28.70;55.80;;;;;;5057747;28;20043;-83
2021/06/18 10:54:08;;;;;;;5.50;4.78;;;28.80;55.70;;;;;;5074582;28;20461;-83
2021/06/18 10:56:46;;;;;;;5.40;4.63;;;28.90;55.70;;;;;;5043525;28;20044;-85
2021/06/18 10:59:16;;;;;;;6.00;4.90;;;28.90;55.60;;;;;;5074428;28;20036;-83
2021/06/18 11:01:46;;;;;;;5.90;5.03;;;29.00;55.40;;;;;;5093040;28;20082;-89
2021/06/18 11:04:13;;;;;;;5.78;4.90;;;29.10;55.40;;;;;;5045156;28;20457;-89
2021/06/18 11:06:51;;;;;;;5.70;4.72;;;29.20;55.30;;;;;;5054962;28;20178;-88
2021/06/18 11:09:56;;;;;;;5.55;4.60;;;29.20;55.30;;;;;;5060259;28;20025;-90
2021/06/18 11:12:29;;;;;;;5.68;5.05;;;29.30;55.30;;;;;;4952861;28;20039;-91
2021/06/18 11:14:55;;;;;;;6.50;5.03;;;29.40;55.10;;;;;;5069236;28;20032;-92
2021/06/18 11:17:43;;;;;;;5.70;4.85;;;29.40;55.00;;;;;;5069799;28;20033;-92
2021/06/18 11:20:10;;;;;;;5.68;4.68;;;29.50;55.20;;;;;;5056456;28;20017;-90
2021/06/18 11:22:51;;;;;;;6.35;5.30;;;29.60;55.10;;;;;;5074848;28;20487;-92
2021/06/18 11:25:42;;;;;;;5.95;4.65;;;29.60;55.10;;;;;;5092335;28;20031;-87
2021/06/18 11:28:23;;;;;;;6.18;5.15;;;29.70;55.20;;;;;;5048242;28;20056;-92
2021/06/18 11:31:09;;;;;;;5.57;4.78;;;29.70;55.10;;;;;;5056677;28;20028;-90
2021/06/18 11:36:14;;;;;;;6.05;5.03;;;29.80;55.00;;;;;;5061486;28;20032;-89
2021/06/18 11:38:40;;;;;;;5.82;4.95;;;29.90;55.00;;;;;;5056220;28;20098;-89
2021/06/18 11:41:10;;;;;;;5.70;5.03;;;29.90;55.00;;;;;;5041401;28;20032;-90
2021/06/18 11:43:40;;;;;;;6.18;5.40;;;30.00;55.20;;;;;;5074971;28;20085;-90
2021/06/18 11:46:07;;;;;;;5.22;4.60;;;30.00;55.30;;;;;;5056573;28;20057;-93
2021/06/18 11:48:33;;;;;;;5.50;4.78;;;30.00;55.30;;;;;;5063948;28;20031;-91
2021/06/18 11:51:00;;;;;;;5.72;4.82;;;30.10;55.40;;;;;;5044385;28;20080;-89
2021/06/18 11:53:39;;;;;;;5.50;5.00;;;30.10;55.50;;;;;;5061640;28;20051;-89
2021/06/18 11:56:07;;;;;;;5.55;4.75;;;30.10;55.60;;;;;;5061654;28;20028;-90
2021/06/18 11:58:37;;;;;;;6.07;4.90;;;30.20;55.60;;;;;;5069344;28;20041;-89
2021/06/18 12:01:14;;;;;;;5.60;4.75;;;30.20;55.60;;;;;;5044296;28;20036;-91
2021/06/18 12:03:42;;;;;;;5.10;4.60;;;30.20;55.70;;;;;;5078732;28;20361;-91
2021/06/18 12:06:22;;;;;;;5.72;5.13;;;30.30;55.70;;;;;;5064255;28;20031;-90
2021/06/18 12:09:18;;;;;;;5.28;4.32;;;30.30;55.80;;;;;;5086959;28;20024;-87
2021/06/18 12:11:53;;;;;;;5.28;4.75;;;30.30;55.80;;;;;;5058878;28;20052;-88
2021/06/18 12:14:19;;;;;;;5.40;4.47;;;30.40;55.90;;;;;;5078577;28;20025;-91
2021/06/18 12:16:48;;;;;;;5.88;4.60;;;30.40;55.80;;;;;;5062708;28;20025;-89
2021/06/18 12:19:35;;;;;;;5.10;4.57;;;30.40;55.80;;;;;;5061140;28;20020;-90
2021/06/18 12:22:10;;;;;;;5.03;4.30;;;30.40;55.90;;;;;;5061331;28;20035;-91
2021/06/18 12:24:39;;;;;;;5.75;4.55;;;30.50;55.70;;;;;;5078048;28;20028;-89
2021/06/18 12:27:08;;;;;;;4.82;3.97;;;30.50;55.70;;;;;;5061303;28;20024;-89
2021/06/18 12:29:44;;;;;;;5.53;4.43;;;30.50;55.70;;;;;;5087479;28;20029;-90
2021/06/18 12:32:13;;;;;;;5.97;4.13;;;30.50;55.70;;;;;;5077479;28;20040;-88
2021/06/18 12:34:57;;;;;;;5.00;4.35;;;30.60;55.70;;;;;;5060738;28;20457;-89
2021/06/18 12:37:28;;;;;;;5.30;4.18;;;30.50;55.70;;;;;;5061729;28;20043;-88
2021/06/18 12:40:06;;;;;;;4.53;4.00;;;30.60;55.70;;;;;;5061346;28;20024;-90
2021/06/18 12:42:39;;;;;;;5.63;3.88;;;30.60;55.70;;;;;;5057457;28;20112;-91
2021/06/18 12:45:08;;;;;;;4.70;3.63;;;30.60;55.70;;;;;;5067986;28;20028;-89
2021/06/18 12:47:35;;;;;;;5.88;4.30;;;30.60;55.70;;;;;;5077303;28;20227;-88
2021/06/18 12:50:20;;;;;;;4.35;3.85;;;30.60;55.60;;;;;;5077072;28;20094;-89
2021/06/18 12:53:00;;;;;;;4.32;3.72;;;30.60;55.70;;;;;;5076979;28;20119;-91
2021/06/18 12:55:32;;;;;;;4.65;3.90;;;30.70;55.60;;;;;;5065729;28;20438;-90
2021/06/18 12:58:06;;;;;;;4.68;3.95;;;30.70;55.60;;;;;;5094229;28;20100;-89
2021/06/18 13:00:46;;;;;;;5.25;3.80;;;30.70;55.50;;;;;;5064468;28;20546;-91
2021/06/18 13:03:12;;;;;;;3.90;3.28;;;30.70;55.60;;;;;;5074207;28;20103;-88
2021/06/18 13:05:38;;;;;;;3.88;3.45;;;30.70;55.40;;;;;;5077508;28;20060;-91
2021/06/18 13:08:19;;;;;;;6.95;3.88;;;30.80;55.40;;;;;;5041348;28;20473;-89